sensor_id;sensor_type;location;lat;lon;timestamp;P1;durP1;ratioP1;P2;durP2;ratioP2
45848;SDS011;31567;54.600;9.842;2022-08-21T00:02:29;9.73;;;7.18;;
45848;SDS011;31567;54.600;9.842;2022-08-21T00:06:09;10.23;;;5.93;;
45848;SDS011;31567;54.600;9.842;2022-08-21T00:09:49;12.60;;;6.60;;
45848;SDS011;31567;54.600;9.842;2022-08-21T00:13:28;11.35;;;7.57;;
45848;SDS011;31567;54.600;9.842;2022-08-21T00:17:08;8.27;;;5.30;;
45848;SDS011;31567;54.600;9.842;2022-08-21T00:20:48;11.48;;;6.80;;
45848;SDS011;31567;54.600;9.842;2022-08-21T00:24:27;10.40;;;7.95;;
45848;SDS011;31567;54.600;9.842;2022-08-21T00:28:07;13.40;;;8.02;;
45848;SDS011;31567;54.600;9.842;2022-08-21T00:31:47;9.15;;;7.30;;
45848;SDS011;31567;54.600;9.842;2022-08-21T00:35:28;15.60;;;8.93;;
45848;SDS011;31567;54.600;9.842;2022-08-21T00:39:11;16.65;;;10.10;;
45848;SDS011;31567;54.600;9.842;2022-08-21T00:42:50;14.65;;;9.80;;
45848;SDS011;31567;54.600;9.842;2022-08-21T00:46:30;13.77;;;7.60;;
45848;SDS011;31567;54.600;9.842;2022-08-21T00:50:10;16.17;;;9.50;;
45848;SDS011;31567;54.600;9.842;2022-08-21T00:53:53;15.30;;;9.48;;
45848;SDS011;31567;54.600;9.842;2022-08-21T00:57:38;17.23;;;11.02;;
45848;SDS011;31567;54.600;9.842;2022-08-21T01:01:23;15.77;;;9.18;;
45848;SDS011;31567;54.600;9.842;2022-08-21T01:05:03;16.52;;;10.80;;
45848;SDS011;31567;54.600;9.842;2022-08-21T01:08:43;14.88;;;9.27;;
45848;SDS011;31567;54.600;9.842;2022-08-21T01:12:23;12.65;;;9.50;;
45848;SDS011;31567;54.600;9.842;2022-08-21T01:16:04;18.08;;;11.15;;
45848;SDS011;31567;54.600;9.842;2022-08-21T01:19:47;18.00;;;11.43;;
45848;SDS011;31567;54.600;9.842;2022-08-21T01:23:27;16.42;;;10.75;;
45848;SDS011;31567;54.600;9.842;2022-08-21T01:27:07;17.45;;;11.45;;
45848;SDS011;31567;54.600;9.842;2022-08-21T01:30:46;20.85;;;12.02;;
45848;SDS011;31567;54.600;9.842;2022-08-21T01:34:27;16.42;;;9.75;;
45848;SDS011;31567;54.600;9.842;2022-08-21T01:38:07;18.90;;;10.35;;
45848;SDS011;31567;54.600;9.842;2022-08-21T01:41:46;19.38;;;10.55;;
45848;SDS011;31567;54.600;9.842;2022-08-21T01:45:26;11.63;;;8.98;;
45848;SDS011;31567;54.600;9.842;2022-08-21T01:49:06;23.02;;;13.55;;
45848;SDS011;31567;54.600;9.842;2022-08-21T01:52:45;18.80;;;12.32;;
45848;SDS011;31567;54.600;9.842;2022-08-21T01:56:25;16.10;;;11.63;;
45848;SDS011;31567;54.600;9.842;2022-08-21T02:00:07;18.08;;;11.60;;
45848;SDS011;31567;54.600;9.842;2022-08-21T02:03:50;19.45;;;13.05;;
45848;SDS011;31567;54.600;9.842;2022-08-21T02:07:36;12.75;;;9.27;;
45848;SDS011;31567;54.600;9.842;2022-08-21T02:11:20;13.15;;;10.13;;
45848;SDS011;31567;54.600;9.842;2022-08-21T02:15:00;22.30;;;13.52;;
45848;SDS011;31567;54.600;9.842;2022-08-21T02:18:40;12.77;;;11.20;;
45848;SDS011;31567;54.600;9.842;2022-08-21T02:22:19;13.73;;;12.13;;
45848;SDS011;31567;54.600;9.842;2022-08-21T02:26:00;15.77;;;11.90;;
45848;SDS011;31567;54.600;9.842;2022-08-21T02:29:40;22.77;;;14.05;;
45848;SDS011;31567;54.600;9.842;2022-08-21T02:33:20;16.33;;;12.30;;
45848;SDS011;31567;54.600;9.842;2022-08-21T02:36:59;16.45;;;12.95;;
45848;SDS011;31567;54.600;9.842;2022-08-21T02:40:40;34.08;;;19.42;;
45848;SDS011;31567;54.600;9.842;2022-08-21T02:44:21;27.92;;;15.57;;
45848;SDS011;31567;54.600;9.842;2022-08-21T02:48:03;15.48;;;13.02;;
45848;SDS011;31567;54.600;9.842;2022-08-21T02:51:45;16.48;;;11.68;;
45848;SDS011;31567;54.600;9.842;2022-08-21T02:55:25;18.52;;;12.85;;
45848;SDS011;31567;54.600;9.842;2022-08-21T02:59:06;13.27;;;11.80;;
45848;SDS011;31567;54.600;9.842;2022-08-21T03:02:46;17.80;;;13.52;;
45848;SDS011;31567;54.600;9.842;2022-08-21T03:06:26;20.45;;;14.30;;
45848;SDS011;31567;54.600;9.842;2022-08-21T03:10:06;18.42;;;13.43;;
45848;SDS011;31567;54.600;9.842;2022-08-21T03:13:46;24.55;;;15.65;;
45848;SDS011;31567;54.600;9.842;2022-08-21T03:17:26;19.40;;;14.52;;
45848;SDS011;31567;54.600;9.842;2022-08-21T03:21:06;23.42;;;15.60;;
45848;SDS011;31567;54.600;9.842;2022-08-21T03:24:46;25.10;;;17.23;;
45848;SDS011;31567;54.600;9.842;2022-08-21T03:28:25;17.15;;;12.55;;
45848;SDS011;31567;54.600;9.842;2022-08-21T03:32:05;20.58;;;13.18;;
45848;SDS011;31567;54.600;9.842;2022-08-21T03:35:54;20.77;;;14.68;;
45848;SDS011;31567;54.600;9.842;2022-08-21T03:39:41;23.15;;;15.50;;
45848;SDS011;31567;54.600;9.842;2022-08-21T03:43:20;17.60;;;14.65;;
45848;SDS011;31567;54.600;9.842;2022-08-21T03:47:00;14.57;;;12.52;;
45848;SDS011;31567;54.600;9.842;2022-08-21T03:50:41;16.45;;;13.13;;
45848;SDS011;31567;54.600;9.842;2022-08-21T03:54:22;16.15;;;11.70;;
45848;SDS011;31567;54.600;9.842;2022-08-21T03:58:02;28.40;;;15.25;;
45848;SDS011;31567;54.600;9.842;2022-08-21T04:01:50;20.88;;;14.32;;
45848;SDS011;31567;54.600;9.842;2022-08-21T04:05:34;14.68;;;11.50;;
45848;SDS011;31567;54.600;9.842;2022-08-21T04:09:16;19.15;;;14.30;;
45848;SDS011;31567;54.600;9.842;2022-08-21T04:12:56;17.85;;;11.82;;
45848;SDS011;31567;54.600;9.842;2022-08-21T04:16:36;18.67;;;13.52;;
45848;SDS011;31567;54.600;9.842;2022-08-21T04:20:16;17.10;;;12.52;;
45848;SDS011;31567;54.600;9.842;2022-08-21T04:23:56;14.73;;;12.35;;
45848;SDS011;31567;54.600;9.842;2022-08-21T04:27:37;17.10;;;12.50;;
45848;SDS011;31567;54.600;9.842;2022-08-21T04:31:18;15.88;;;12.13;;
45848;SDS011;31567;54.600;9.842;2022-08-21T04:35:03;15.70;;;13.18;;
45848;SDS011;31567;54.600;9.842;2022-08-21T04:38:44;17.02;;;12.70;;
45848;SDS011;31567;54.600;9.842;2022-08-21T04:42:24;13.63;;;11.70;;
45848;SDS011;31567;54.600;9.842;2022-08-21T04:46:05;14.45;;;12.00;;
45848;SDS011;31567;54.600;9.842;2022-08-21T04:49:44;20.63;;;12.98;;
45848;SDS011;31567;54.600;9.842;2022-08-21T04:53:36;18.88;;;13.40;;
45848;SDS011;31567;54.600;9.842;2022-08-21T05:01:21;19.48;;;13.10;;
45848;SDS011;31567;54.600;9.842;2022-08-21T05:05:03;21.40;;;13.27;;
45848;SDS011;31567;54.600;9.842;2022-08-21T05:08:45;17.92;;;13.65;;
45848;SDS011;31567;54.600;9.842;2022-08-21T05:12:27;18.48;;;13.65;;
45848;SDS011;31567;54.600;9.842;2022-08-21T05:16:07;17.95;;;11.57;;
45848;SDS011;31567;54.600;9.842;2022-08-21T05:19:47;17.67;;;11.35;;
45848;SDS011;31567;54.600;9.842;2022-08-21T05:23:26;14.10;;;10.32;;
45848;SDS011;31567;54.600;9.842;2022-08-21T05:27:06;16.90;;;9.85;;
45848;SDS011;31567;54.600;9.842;2022-08-21T05:30:45;13.20;;;9.02;;
45848;SDS011;31567;54.600;9.842;2022-08-21T05:34:25;14.48;;;9.20;;
45848;SDS011;31567;54.600;9.842;2022-08-21T05:38:05;13.52;;;9.27;;
45848;SDS011;31567;54.600;9.842;2022-08-21T05:41:45;13.43;;;7.53;;
45848;SDS011;31567;54.600;9.842;2022-08-21T05:45:29;12.23;;;7.25;;
45848;SDS011;31567;54.600;9.842;2022-08-21T05:49:10;12.90;;;7.00;;
45848;SDS011;31567;54.600;9.842;2022-08-21T05:52:50;10.30;;;6.32;;
45848;SDS011;31567;54.600;9.842;2022-08-21T05:56:30;10.65;;;7.45;;
45848;SDS011;31567;54.600;9.842;2022-08-21T06:00:10;9.55;;;6.07;;
45848;SDS011;31567;54.600;9.842;2022-08-21T06:03:51;9.43;;;6.15;;
45848;SDS011;31567;54.600;9.842;2022-08-21T06:07:31;9.35;;;6.30;;
45848;SDS011;31567;54.600;9.842;2022-08-21T06:11:11;6.88;;;5.32;;
45848;SDS011;31567;54.600;9.842;2022-08-21T06:14:50;11.48;;;5.38;;
45848;SDS011;31567;54.600;9.842;2022-08-21T06:18:31;12.18;;;5.07;;
45848;SDS011;31567;54.600;9.842;2022-08-21T06:22:10;11.07;;;5.07;;
45848;SDS011;31567;54.600;9.842;2022-08-21T06:25:50;8.70;;;5.00;;
45848;SDS011;31567;54.600;9.842;2022-08-21T06:29:30;9.15;;;4.50;;
45848;SDS011;31567;54.600;9.842;2022-08-21T06:33:09;6.60;;;4.40;;
45848;SDS011;31567;54.600;9.842;2022-08-21T06:36:49;6.13;;;3.80;;
45848;SDS011;31567;54.600;9.842;2022-08-21T06:40:29;6.90;;;3.75;;
45848;SDS011;31567;54.600;9.842;2022-08-21T06:44:09;6.53;;;3.50;;
45848;SDS011;31567;54.600;9.842;2022-08-21T06:47:49;7.63;;;3.47;;
45848;SDS011;31567;54.600;9.842;2022-08-21T06:51:28;6.22;;;3.10;;
45848;SDS011;31567;54.600;9.842;2022-08-21T06:55:08;8.60;;;3.30;;
45848;SDS011;31567;54.600;9.842;2022-08-21T06:58:48;7.70;;;2.97;;
45848;SDS011;31567;54.600;9.842;2022-08-21T07:02:28;5.10;;;2.28;;
45848;SDS011;31567;54.600;9.842;2022-08-21T07:06:09;5.25;;;2.60;;
45848;SDS011;31567;54.600;9.842;2022-08-21T07:09:49;6.90;;;2.08;;
45848;SDS011;31567;54.600;9.842;2022-08-21T07:13:28;7.93;;;2.35;;
45848;SDS011;31567;54.600;9.842;2022-08-21T07:17:08;6.07;;;1.95;;
45848;SDS011;31567;54.600;9.842;2022-08-21T07:20:48;3.38;;;1.40;;
45848;SDS011;31567;54.600;9.842;2022-08-21T07:24:28;5.72;;;2.10;;
45848;SDS011;31567;54.600;9.842;2022-08-21T07:28:08;4.57;;;1.73;;
45848;SDS011;31567;54.600;9.842;2022-08-21T07:31:47;8.00;;;2.42;;
45848;SDS011;31567;54.600;9.842;2022-08-21T07:35:27;4.18;;;1.80;;
45848;SDS011;31567;54.600;9.842;2022-08-21T07:39:07;10.52;;;1.77;;
45848;SDS011;31567;54.600;9.842;2022-08-21T07:42:47;4.05;;;1.40;;
45848;SDS011;31567;54.600;9.842;2022-08-21T07:46:30;4.13;;;1.42;;
45848;SDS011;31567;54.600;9.842;2022-08-21T07:50:10;3.28;;;1.55;;
45848;SDS011;31567;54.600;9.842;2022-08-21T07:53:51;5.13;;;1.58;;
45848;SDS011;31567;54.600;9.842;2022-08-21T07:57:33;4.88;;;2.08;;
45848;SDS011;31567;54.600;9.842;2022-08-21T08:01:12;2.97;;;1.08;;
45848;SDS011;31567;54.600;9.842;2022-08-21T08:04:53;2.40;;;1.20;;
45848;SDS011;31567;54.600;9.842;2022-08-21T08:08:32;3.42;;;1.05;;
45848;SDS011;31567;54.600;9.842;2022-08-21T08:12:12;3.42;;;1.20;;
45848;SDS011;31567;54.600;9.842;2022-08-21T08:15:52;2.47;;;1.10;;
45848;SDS011;31567;54.600;9.842;2022-08-21T08:19:31;6.25;;;1.83;;
45848;SDS011;31567;54.600;9.842;2022-08-21T08:23:11;4.57;;;1.45;;
45848;SDS011;31567;54.600;9.842;2022-08-21T08:26:52;4.32;;;1.08;;
45848;SDS011;31567;54.600;9.842;2022-08-21T08:30:33;4.18;;;1.50;;
45848;SDS011;31567;54.600;9.842;2022-08-21T08:34:12;3.63;;;1.42;;
45848;SDS011;31567;54.600;9.842;2022-08-21T08:37:52;6.35;;;1.58;;
45848;SDS011;31567;54.600;9.842;2022-08-21T08:41:31;7.10;;;1.80;;
45848;SDS011;31567;54.600;9.842;2022-08-21T08:45:13;4.45;;;1.60;;
45848;SDS011;31567;54.600;9.842;2022-08-21T08:48:58;4.78;;;1.60;;
45848;SDS011;31567;54.600;9.842;2022-08-21T08:52:47;5.68;;;2.00;;
45848;SDS011;31567;54.600;9.842;2022-08-21T08:56:33;5.05;;;1.80;;
45848;SDS011;31567;54.600;9.842;2022-08-21T09:00:14;9.10;;;2.28;;
45848;SDS011;31567;54.600;9.842;2022-08-21T09:03:56;6.00;;;2.13;;
45848;SDS011;31567;54.600;9.842;2022-08-21T09:12:00;5.10;;;1.88;;
45848;SDS011;31567;54.600;9.842;2022-08-21T09:20:24;6.30;;;2.40;;
45848;SDS011;31567;54.600;9.842;2022-08-21T09:24:46;5.10;;;1.90;;
45848;SDS011;31567;54.600;9.842;2022-08-21T09:28:31;4.28;;;1.77;;
45848;SDS011;31567;54.600;9.842;2022-08-21T09:32:17;6.70;;;2.00;;
45848;SDS011;31567;54.600;9.842;2022-08-21T09:35:58;5.13;;;1.60;;
45848;SDS011;31567;54.600;9.842;2022-08-21T09:39:39;8.38;;;2.65;;
45848;SDS011;31567;54.600;9.842;2022-08-21T09:43:20;4.18;;;2.05;;
45848;SDS011;31567;54.600;9.842;2022-08-21T09:47:02;3.60;;;1.70;;
45848;SDS011;31567;54.600;9.842;2022-08-21T09:50:42;13.35;;;2.53;;
45848;SDS011;31567;54.600;9.842;2022-08-21T09:54:24;8.00;;;2.40;;
45848;SDS011;31567;54.600;9.842;2022-08-21T09:58:08;6.80;;;2.53;;
45848;SDS011;31567;54.600;9.842;2022-08-21T10:01:49;7.00;;;1.92;;
45848;SDS011;31567;54.600;9.842;2022-08-21T10:05:30;4.18;;;2.20;;
45848;SDS011;31567;54.600;9.842;2022-08-21T10:09:11;4.93;;;1.83;;
45848;SDS011;31567;54.600;9.842;2022-08-21T10:20:37;6.25;;;1.95;;
45848;SDS011;31567;54.600;9.842;2022-08-21T10:24:31;7.25;;;2.30;;
45848;SDS011;31567;54.600;9.842;2022-08-21T10:28:27;6.18;;;1.50;;
45848;SDS011;31567;54.600;9.842;2022-08-21T10:39:43;4.78;;;1.88;;
45848;SDS011;31567;54.600;9.842;2022-08-21T10:43:44;6.72;;;1.65;;
45848;SDS011;31567;54.600;9.842;2022-08-21T10:47:34;3.42;;;1.00;;
45848;SDS011;31567;54.600;9.842;2022-08-21T10:51:20;3.97;;;1.35;;
45848;SDS011;31567;54.600;9.842;2022-08-21T10:55:12;3.55;;;1.20;;
45848;SDS011;31567;54.600;9.842;2022-08-21T11:07:05;5.30;;;1.08;;
45848;SDS011;31567;54.600;9.842;2022-08-21T11:11:04;3.55;;;1.10;;
45848;SDS011;31567;54.600;9.842;2022-08-21T11:15:03;1.92;;;1.13;;
45848;SDS011;31567;54.600;9.842;2022-08-21T11:18:55;3.58;;;1.38;;
45848;SDS011;31567;54.600;9.842;2022-08-21T11:22:46;2.17;;;0.70;;
45848;SDS011;31567;54.600;9.842;2022-08-21T11:26:38;1.88;;;0.80;;
45848;SDS011;31567;54.600;9.842;2022-08-21T11:30:23;2.85;;;0.90;;
45848;SDS011;31567;54.600;9.842;2022-08-21T11:42:01;2.90;;;1.08;;
45848;SDS011;31567;54.600;9.842;2022-08-21T11:53:15;2.00;;;0.70;;
45848;SDS011;31567;54.600;9.842;2022-08-21T11:57:05;1.23;;;0.70;;
45848;SDS011;31567;54.600;9.842;2022-08-21T12:01:00;2.70;;;0.70;;
45848;SDS011;31567;54.600;9.842;2022-08-21T12:04:49;4.05;;;1.33;;
45848;SDS011;31567;54.600;9.842;2022-08-21T12:08:35;6.97;;;1.48;;
45848;SDS011;31567;54.600;9.842;2022-08-21T12:12:24;2.55;;;0.70;;
45848;SDS011;31567;54.600;9.842;2022-08-21T12:16:12;2.90;;;0.75;;
45848;SDS011;31567;54.600;9.842;2022-08-21T12:28:01;5.97;;;0.93;;
45848;SDS011;31567;54.600;9.842;2022-08-21T12:31:53;1.67;;;0.68;;
45848;SDS011;31567;54.600;9.842;2022-08-21T12:35:37;2.25;;;0.90;;
45848;SDS011;31567;54.600;9.842;2022-08-21T12:39:21;6.25;;;1.00;;
45848;SDS011;31567;54.600;9.842;2022-08-21T12:43:04;2.60;;;0.97;;
45848;SDS011;31567;54.600;9.842;2022-08-21T12:50:39;5.43;;;1.15;;
45848;SDS011;31567;54.600;9.842;2022-08-21T12:54:24;5.13;;;1.30;;
45848;SDS011;31567;54.600;9.842;2022-08-21T12:58:16;10.57;;;1.45;;
45848;SDS011;31567;54.600;9.842;2022-08-21T13:02:00;4.20;;;0.93;;
45848;SDS011;31567;54.600;9.842;2022-08-21T13:05:42;6.53;;;1.08;;
45848;SDS011;31567;54.600;9.842;2022-08-21T13:09:23;3.97;;;1.13;;
45848;SDS011;31567;54.600;9.842;2022-08-21T13:13:12;4.18;;;0.90;;
45848;SDS011;31567;54.600;9.842;2022-08-21T13:16:59;4.65;;;1.35;;
45848;SDS011;31567;54.600;9.842;2022-08-21T13:20:40;5.75;;;1.40;;
45848;SDS011;31567;54.600;9.842;2022-08-21T13:24:25;4.30;;;1.65;;
45848;SDS011;31567;54.600;9.842;2022-08-21T13:28:10;5.18;;;1.73;;
45848;SDS011;31567;54.600;9.842;2022-08-21T13:31:54;6.50;;;2.58;;
45848;SDS011;31567;54.600;9.842;2022-08-21T13:35:36;6.80;;;1.77;;
45848;SDS011;31567;54.600;9.842;2022-08-21T13:39:26;8.18;;;1.60;;
45848;SDS011;31567;54.600;9.842;2022-08-21T13:43:10;9.75;;;2.03;;
45848;SDS011;31567;54.600;9.842;2022-08-21T13:46:52;4.38;;;1.48;;
45848;SDS011;31567;54.600;9.842;2022-08-21T13:50:33;4.93;;;1.60;;
45848;SDS011;31567;54.600;9.842;2022-08-21T13:54:16;4.47;;;1.60;;
45848;SDS011;31567;54.600;9.842;2022-08-21T13:58:05;4.50;;;1.38;;
45848;SDS011;31567;54.600;9.842;2022-08-21T14:01:49;8.10;;;1.83;;
45848;SDS011;31567;54.600;9.842;2022-08-21T14:05:43;9.15;;;2.25;;
45848;SDS011;31567;54.600;9.842;2022-08-21T14:09:32;8.70;;;1.98;;
45848;SDS011;31567;54.600;9.842;2022-08-21T14:13:21;7.68;;;2.13;;
45848;SDS011;31567;54.600;9.842;2022-08-21T14:17:05;7.40;;;1.75;;
45848;SDS011;31567;54.600;9.842;2022-08-21T14:20:47;4.07;;;1.33;;
45848;SDS011;31567;54.600;9.842;2022-08-21T14:24:29;8.25;;;2.13;;
45848;SDS011;31567;54.600;9.842;2022-08-21T14:28:28;9.25;;;2.70;;
45848;SDS011;31567;54.600;9.842;2022-08-21T14:32:15;8.63;;;2.10;;
45848;SDS011;31567;54.600;9.842;2022-08-21T14:35:59;4.78;;;1.80;;
45848;SDS011;31567;54.600;9.842;2022-08-21T14:39:40;6.30;;;2.00;;
45848;SDS011;31567;54.600;9.842;2022-08-21T14:43:20;7.82;;;1.98;;
45848;SDS011;31567;54.600;9.842;2022-08-21T14:47:00;7.55;;;2.22;;
45848;SDS011;31567;54.600;9.842;2022-08-21T14:50:39;4.07;;;1.67;;
45848;SDS011;31567;54.600;9.842;2022-08-21T14:54:19;6.63;;;2.00;;
45848;SDS011;31567;54.600;9.842;2022-08-21T14:57:59;6.32;;;2.35;;
45848;SDS011;31567;54.600;9.842;2022-08-21T15:01:39;7.80;;;1.90;;
45848;SDS011;31567;54.600;9.842;2022-08-21T15:05:19;7.45;;;2.22;;
45848;SDS011;31567;54.600;9.842;2022-08-21T15:08:59;5.57;;;2.03;;
45848;SDS011;31567;54.600;9.842;2022-08-21T15:12:40;6.38;;;1.80;;
45848;SDS011;31567;54.600;9.842;2022-08-21T15:16:20;5.88;;;1.88;;
45848;SDS011;31567;54.600;9.842;2022-08-21T15:20:00;6.07;;;1.85;;
45848;SDS011;31567;54.600;9.842;2022-08-21T15:23:39;7.07;;;1.90;;
45848;SDS011;31567;54.600;9.842;2022-08-21T15:27:19;4.97;;;1.60;;
45848;SDS011;31567;54.600;9.842;2022-08-21T15:30:59;6.55;;;1.42;;
45848;SDS011;31567;54.600;9.842;2022-08-21T15:34:39;5.47;;;1.50;;
45848;SDS011;31567;54.600;9.842;2022-08-21T15:38:19;2.97;;;1.38;;
45848;SDS011;31567;54.600;9.842;2022-08-21T15:41:58;7.55;;;1.85;;
45848;SDS011;31567;54.600;9.842;2022-08-21T15:45:38;4.05;;;1.45;;
45848;SDS011;31567;54.600;9.842;2022-08-21T15:49:18;4.47;;;1.70;;
45848;SDS011;31567;54.600;9.842;2022-08-21T15:52:57;7.53;;;1.75;;
45848;SDS011;31567;54.600;9.842;2022-08-21T15:56:37;3.72;;;1.60;;
45848;SDS011;31567;54.600;9.842;2022-08-21T16:00:23;4.30;;;1.42;;
45848;SDS011;31567;54.600;9.842;2022-08-21T16:04:03;6.35;;;1.77;;
45848;SDS011;31567;54.600;9.842;2022-08-21T16:07:43;7.28;;;1.80;;
45848;SDS011;31567;54.600;9.842;2022-08-21T16:11:24;5.75;;;1.52;;
45848;SDS011;31567;54.600;9.842;2022-08-21T16:15:05;3.92;;;1.42;;
45848;SDS011;31567;54.600;9.842;2022-08-21T16:18:47;6.68;;;1.70;;
45848;SDS011;31567;54.600;9.842;2022-08-21T16:22:28;4.35;;;1.60;;
45848;SDS011;31567;54.600;9.842;2022-08-21T16:26:08;5.85;;;1.75;;
45848;SDS011;31567;54.600;9.842;2022-08-21T16:29:50;5.55;;;1.50;;
45848;SDS011;31567;54.600;9.842;2022-08-21T16:33:32;6.88;;;1.83;;
45848;SDS011;31567;54.600;9.842;2022-08-21T16:37:17;5.78;;;2.10;;
45848;SDS011;31567;54.600;9.842;2022-08-21T16:40:57;5.68;;;1.98;;
45848;SDS011;31567;54.600;9.842;2022-08-21T16:44:38;4.97;;;1.85;;
45848;SDS011;31567;54.600;9.842;2022-08-21T16:48:17;6.90;;;1.90;;
45848;SDS011;31567;54.600;9.842;2022-08-21T16:51:57;7.90;;;2.17;;
45848;SDS011;31567;54.600;9.842;2022-08-21T16:55:37;5.75;;;1.92;;
45848;SDS011;31567;54.600;9.842;2022-08-21T16:59:17;6.93;;;2.00;;
45848;SDS011;31567;54.600;9.842;2022-08-21T17:02:56;8.07;;;2.05;;
45848;SDS011;31567;54.600;9.842;2022-08-21T17:06:36;7.10;;;1.92;;
45848;SDS011;31567;54.600;9.842;2022-08-21T17:10:16;7.40;;;1.85;;
45848;SDS011;31567;54.600;9.842;2022-08-21T17:13:57;9.00;;;2.40;;
45848;SDS011;31567;54.600;9.842;2022-08-21T17:17:39;6.57;;;2.10;;
45848;SDS011;31567;54.600;9.842;2022-08-21T17:21:19;5.38;;;1.40;;
45848;SDS011;31567;54.600;9.842;2022-08-21T17:24:59;4.85;;;1.83;;
45848;SDS011;31567;54.600;9.842;2022-08-21T17:28:38;4.93;;;1.70;;
45848;SDS011;31567;54.600;9.842;2022-08-21T17:32:18;3.63;;;1.90;;
45848;SDS011;31567;54.600;9.842;2022-08-21T17:35:58;6.70;;;1.40;;
45848;SDS011;31567;54.600;9.842;2022-08-21T17:39:39;7.95;;;1.75;;
45848;SDS011;31567;54.600;9.842;2022-08-21T17:43:19;5.85;;;1.42;;
45848;SDS011;31567;54.600;9.842;2022-08-21T17:46:59;4.00;;;1.40;;
45848;SDS011;31567;54.600;9.842;2022-08-21T17:50:39;6.85;;;2.05;;
45848;SDS011;31567;54.600;9.842;2022-08-21T17:54:19;4.82;;;1.40;;
45848;SDS011;31567;54.600;9.842;2022-08-21T17:57:59;3.60;;;1.40;;
45848;SDS011;31567;54.600;9.842;2022-08-21T18:01:40;5.53;;;1.48;;
45848;SDS011;31567;54.600;9.842;2022-08-21T18:05:21;5.72;;;1.60;;
45848;SDS011;31567;54.600;9.842;2022-08-21T18:09:02;5.22;;;1.70;;
45848;SDS011;31567;54.600;9.842;2022-08-21T18:12:42;7.47;;;1.60;;
45848;SDS011;31567;54.600;9.842;2022-08-21T18:16:23;4.55;;;1.88;;
45848;SDS011;31567;54.600;9.842;2022-08-21T18:20:03;8.60;;;1.80;;
45848;SDS011;31567;54.600;9.842;2022-08-21T18:23:45;8.60;;;1.83;;
45848;SDS011;31567;54.600;9.842;2022-08-21T18:27:24;5.15;;;1.73;;
45848;SDS011;31567;54.600;9.842;2022-08-21T18:31:06;4.72;;;1.60;;
45848;SDS011;31567;54.600;9.842;2022-08-21T18:34:47;5.10;;;1.45;;
45848;SDS011;31567;54.600;9.842;2022-08-21T18:38:27;9.60;;;1.75;;
45848;SDS011;31567;54.600;9.842;2022-08-21T18:42:08;6.95;;;2.20;;
45848;SDS011;31567;54.600;9.842;2022-08-21T18:45:51;6.63;;;1.73;;
45848;SDS011;31567;54.600;9.842;2022-08-21T18:49:31;7.60;;;1.80;;
45848;SDS011;31567;54.600;9.842;2022-08-21T18:53:11;8.77;;;2.35;;
45848;SDS011;31567;54.600;9.842;2022-08-21T18:56:52;9.88;;;2.03;;
45848;SDS011;31567;54.600;9.842;2022-08-21T19:00:33;8.38;;;1.55;;
45848;SDS011;31567;54.600;9.842;2022-08-21T19:04:15;7.78;;;1.90;;
45848;SDS011;31567;54.600;9.842;2022-08-21T19:07:55;8.48;;;2.20;;
45848;SDS011;31567;54.600;9.842;2022-08-21T19:11:35;10.63;;;2.42;;
45848;SDS011;31567;54.600;9.842;2022-08-21T19:15:18;9.30;;;2.30;;
45848;SDS011;31567;54.600;9.842;2022-08-21T19:18:59;8.95;;;2.33;;
45848;SDS011;31567;54.600;9.842;2022-08-21T19:22:40;5.53;;;1.88;;
45848;SDS011;31567;54.600;9.842;2022-08-21T19:26:20;8.30;;;1.98;;
45848;SDS011;31567;54.600;9.842;2022-08-21T19:30:01;9.88;;;2.13;;
45848;SDS011;31567;54.600;9.842;2022-08-21T19:33:44;8.80;;;2.10;;
45848;SDS011;31567;54.600;9.842;2022-08-21T19:37:37;10.70;;;2.58;;
45848;SDS011;31567;54.600;9.842;2022-08-21T19:41:17;8.70;;;2.13;;
45848;SDS011;31567;54.600;9.842;2022-08-21T19:44:58;5.82;;;2.17;;
45848;SDS011;31567;54.600;9.842;2022-08-21T19:48:38;8.23;;;1.95;;
45848;SDS011;31567;54.600;9.842;2022-08-21T19:52:17;9.68;;;2.17;;
45848;SDS011;31567;54.600;9.842;2022-08-21T19:55:57;8.57;;;2.20;;
45848;SDS011;31567;54.600;9.842;2022-08-21T19:59:37;7.97;;;1.90;;
45848;SDS011;31567;54.600;9.842;2022-08-21T20:03:18;10.98;;;2.17;;
45848;SDS011;31567;54.600;9.842;2022-08-21T20:06:58;9.70;;;2.65;;
45848;SDS011;31567;54.600;9.842;2022-08-21T20:10:38;9.48;;;2.50;;
45848;SDS011;31567;54.600;9.842;2022-08-21T20:14:23;7.50;;;2.15;;
45848;SDS011;31567;54.600;9.842;2022-08-21T20:18:05;10.10;;;2.03;;
45848;SDS011;31567;54.600;9.842;2022-08-21T20:21:46;9.30;;;2.50;;
45848;SDS011;31567;54.600;9.842;2022-08-21T20:25:26;8.80;;;2.03;;
45848;SDS011;31567;54.600;9.842;2022-08-21T20:29:10;6.90;;;2.00;;
45848;SDS011;31567;54.600;9.842;2022-08-21T20:32:49;6.35;;;1.73;;
45848;SDS011;31567;54.600;9.842;2022-08-21T20:36:29;5.95;;;2.08;;
45848;SDS011;31567;54.600;9.842;2022-08-21T20:40:10;9.30;;;2.22;;
45848;SDS011;31567;54.600;9.842;2022-08-21T20:43:51;10.25;;;2.65;;
45848;SDS011;31567;54.600;9.842;2022-08-21T20:47:32;9.75;;;2.95;;
45848;SDS011;31567;54.600;9.842;2022-08-21T20:51:12;9.43;;;2.28;;
45848;SDS011;31567;54.600;9.842;2022-08-21T20:55:08;9.85;;;2.30;;
45848;SDS011;31567;54.600;9.842;2022-08-21T20:58:54;11.07;;;2.20;;
45848;SDS011;31567;54.600;9.842;2022-08-21T21:06:45;5.80;;;1.95;;
45848;SDS011;31567;54.600;9.842;2022-08-21T21:14:20;12.57;;;2.90;;
45848;SDS011;31567;54.600;9.842;2022-08-21T21:18:12;7.90;;;2.35;;
45848;SDS011;31567;54.600;9.842;2022-08-21T21:22:02;6.47;;;2.10;;
45848;SDS011;31567;54.600;9.842;2022-08-21T21:25:49;10.85;;;2.88;;
45848;SDS011;31567;54.600;9.842;2022-08-21T21:29:45;9.68;;;2.97;;
45848;SDS011;31567;54.600;9.842;2022-08-21T21:33:30;9.90;;;2.83;;
45848;SDS011;31567;54.600;9.842;2022-08-21T21:37:20;7.80;;;2.60;;
45848;SDS011;31567;54.600;9.842;2022-08-21T21:45:05;5.43;;;3.13;;
45848;SDS011;31567;54.600;9.842;2022-08-21T21:52:36;7.93;;;2.33;;
45848;SDS011;31567;54.600;9.842;2022-08-21T21:56:28;10.95;;;3.05;;
45848;SDS011;31567;54.600;9.842;2022-08-21T22:00:18;7.03;;;2.45;;
45848;SDS011;31567;54.600;9.842;2022-08-21T22:04:04;9.05;;;3.08;;
45848;SDS011;31567;54.600;9.842;2022-08-21T22:07:53;9.02;;;2.83;;
45848;SDS011;31567;54.600;9.842;2022-08-21T22:11:53;9.85;;;3.60;;
45848;SDS011;31567;54.600;9.842;2022-08-21T22:15:35;10.73;;;3.37;;
45848;SDS011;31567;54.600;9.842;2022-08-21T22:23:06;7.55;;;3.40;;
45848;SDS011;31567;54.600;9.842;2022-08-21T22:26:52;10.75;;;3.20;;
45848;SDS011;31567;54.600;9.842;2022-08-21T22:30:47;8.98;;;3.78;;
45848;SDS011;31567;54.600;9.842;2022-08-21T22:34:29;11.98;;;3.67;;
45848;SDS011;31567;54.600;9.842;2022-08-21T22:42:09;9.02;;;3.05;;
45848;SDS011;31567;54.600;9.842;2022-08-21T22:46:05;9.88;;;3.38;;
45848;SDS011;31567;54.600;9.842;2022-08-21T22:49:47;5.97;;;3.13;;
45848;SDS011;31567;54.600;9.842;2022-08-21T22:53:29;11.48;;;3.65;;
45848;SDS011;31567;54.600;9.842;2022-08-21T22:57:19;7.75;;;3.70;;
45848;SDS011;31567;54.600;9.842;2022-08-21T23:04:50;7.32;;;3.45;;
45848;SDS011;31567;54.600;9.842;2022-08-21T23:08:35;11.48;;;3.80;;
45848;SDS011;31567;54.600;9.842;2022-08-21T23:12:23;10.10;;;3.67;;
45848;SDS011;31567;54.600;9.842;2022-08-21T23:31:50;9.60;;;3.90;;
45848;SDS011;31567;54.600;9.842;2022-08-21T23:48:30;16.67;;;5.47;;
